Time;durP1;ratioP1;P1;durP2;ratioP2;P2;SDS_P1;SDS_P2;PMS_P1;PMS_P2;Temp;Humidity;BMP_temperature;BMP_pressure;BME280_temperature;BME280_humidity;BME280_pressure;Samples;Min_cycle;Max_cycle;Signal;HPM_P1;HPM_P2
2022/07/17 00:00:04;;;;;;;3.40;2.25;;;;;;;24.31;47.46;95023.34;4177550;28;20082;-53
2022/07/17 00:02:06;;;;;;;4.80;2.40;;;;;;;24.34;47.63;95030.88;4169291;28;20390;-52
2022/07/17 00:04:08;;;;;;;5.65;2.53;;;;;;;24.36;47.37;95031.47;4169264;28;20048;-51
2022/07/17 00:06:10;;;;;;;4.40;2.70;;;;;;;24.36;47.51;95034.16;4163321;28;20053;-54
2022/07/17 00:08:12;;;;;;;3.05;2.17;;;;;;;24.33;47.20;95037.31;4174001;28;20061;-52
2022/07/17 00:10:14;;;;;;;5.17;2.20;;;;;;;24.29;47.54;95038.84;4160709;28;20065;-51
2022/07/17 00:12:16;;;;;;;4.47;2.60;;;;;;;24.22;47.64;95044.31;4160597;28;20194;-55
2022/07/17 00:14:19;;;;;;;5.28;2.30;;;;;;;24.18;47.83;95040.47;4161138;28;20076;-55
2022/07/17 00:16:21;;;;;;;4.88;2.53;;;;;;;24.18;47.67;95039.66;4175087;28;20048;-54
2022/07/17 00:18:23;;;;;;;6.38;3.17;;;;;;;24.22;47.45;95044.31;4174976;28;20053;-54
2022/07/17 00:20:26;;;;;;;3.25;2.30;;;;;;;24.21;47.52;95045.34;4171569;28;20461;-54
2022/07/17 00:22:27;;;;;;;5.40;2.35;;;;;;;24.20;47.24;95045.56;4161669;28;20046;-52
2022/07/17 00:24:29;;;;;;;4.28;2.40;;;;;;;24.18;47.60;95047.69;4159615;28;20077;-54
2022/07/17 00:26:31;;;;;;;4.03;2.40;;;;;;;24.19;47.40;95047.44;4162740;28;20095;-53
2022/07/17 00:28:34;;;;;;;4.97;2.23;;;;;;;24.19;47.43;95049.31;4176796;28;20649;-53
2022/07/17 00:30:36;;;;;;;2.80;2.10;;;;;;;24.17;47.39;95046.88;4174065;28;20469;-53
2022/07/17 00:32:38;;;;;;;3.78;2.35;;;;;;;24.18;47.70;95042.31;4173319;28;20060;-54
2022/07/17 00:34:40;;;;;;;2.90;2.15;;;;;;;24.16;47.42;95045.25;4162814;28;20052;-55
2022/07/17 00:36:42;;;;;;;2.70;2.10;;;;;;;24.15;47.64;95043.63;4170975;28;20137;-56
2022/07/17 00:38:44;;;;;;;3.28;2.53;;;;;;;24.15;47.49;95045.47;4160523;28;20060;-56
2022/07/17 00:40:46;;;;;;;3.33;2.45;;;;;;;24.11;46.99;95047.81;4159679;28;20076;-57
2022/07/17 00:42:48;;;;;;;2.58;2.05;;;;;;;24.06;47.34;95045.84;4160138;28;20064;-56
2022/07/17 00:44:50;;;;;;;4.10;2.30;;;;;;;24.00;47.06;95049.44;4172515;28;20591;-55
2022/07/17 00:46:51;;;;;;;3.55;2.35;;;;;;;23.96;47.18;95045.63;4163978;28;20135;-54
2022/07/17 00:48:53;;;;;;;3.03;2.20;;;;;;;24.01;47.42;95050.28;4172914;28;20049;-56
2022/07/17 00:50:55;;;;;;;4.20;2.28;;;;;;;24.00;47.56;95046.78;4167135;28;20693;-57
2022/07/17 00:52:57;;;;;;;2.97;2.25;;;;;;;23.92;47.20;95049.81;4161584;28;20059;-55
2022/07/17 00:54:59;;;;;;;4.25;2.40;;;;;;;23.91;47.04;95053.53;4173282;28;20055;-52
2022/07/17 00:57:22;;;;;;;4.03;2.65;;;;;;;23.88;47.21;95064.72;4159711;28;20136;-50
2022/07/17 00:59:24;;;;;;;5.27;2.50;;;;;;;23.79;47.50;95058.06;4161697;28;20446;-49
2022/07/17 01:01:26;;;;;;;3.78;2.50;;;;;;;23.75;47.72;95062.22;4172106;28;20447;-53
2022/07/17 01:03:29;;;;;;;4.23;2.40;;;;;;;23.75;47.43;95060.38;4160296;28;20049;-54
2022/07/17 01:05:31;;;;;;;3.78;2.00;;;;;;;23.76;47.71;95062.03;4161718;28;20285;-53
2022/07/17 01:07:34;;;;;;;4.05;2.30;;;;;;;23.80;47.45;95067.75;4176207;28;20048;-53
2022/07/17 01:09:36;;;;;;;5.43;2.58;;;;;;;23.73;47.63;95069.69;4174761;28;20413;-54
2022/07/17 01:11:38;;;;;;;3.00;2.20;;;;;;;23.71;47.81;95067.25;4165569;28;20060;-52
2022/07/17 01:13:40;;;;;;;3.88;2.40;;;;;;;23.73;47.66;95067.81;4172605;28;20049;-53
2022/07/17 01:15:42;;;;;;;3.10;2.13;;;;;;;23.73;47.31;95067.81;4161328;28;20050;-53
2022/07/17 01:17:45;;;;;;;2.95;2.22;;;;;;;23.79;47.41;95060.75;4169491;28;20195;-54
2022/07/17 01:19:47;;;;;;;2.90;2.00;;;;;;;23.81;47.35;95064.00;4159199;28;20053;-55
2022/07/17 01:21:50;;;;;;;3.10;2.00;;;;;;;23.83;47.37;95068.09;4162846;28;20240;-53
2022/07/17 01:23:52;;;;;;;3.00;2.40;;;;;;;23.87;46.84;95068.41;4168991;28;20061;-53
2022/07/17 01:25:53;;;;;;;6.72;2.60;;;;;;;23.86;46.77;95061.47;4164363;28;20045;-51
2022/07/17 01:27:56;;;;;;;3.83;2.10;;;;;;;23.85;46.94;95054.47;4164536;28;20603;-53
2022/07/17 01:29:57;;;;;;;4.95;2.53;;;;;;;23.84;46.88;95058.19;4167716;28;20107;-56
2022/07/17 01:31:59;;;;;;;5.30;2.00;;;;;;;23.79;46.62;95061.59;4163563;28;20700;-51
2022/07/17 01:34:01;;;;;;;4.55;2.20;;;;;;;23.75;46.21;95059.53;4172701;28;20115;-50
2022/07/17 01:36:03;;;;;;;4.25;2.38;;;;;;;23.72;46.22;95055.47;4175216;28;20363;-54
2022/07/17 01:38:04;;;;;;;4.15;2.45;;;;;;;23.73;46.54;95061.66;4175126;28;20069;-51
2022/07/17 01:40:08;;;;;;;2.67;1.90;;;;;;;23.75;46.27;95064.91;4173560;28;20065;-53
2022/07/17 01:42:10;;;;;;;4.18;2.00;;;;;;;23.70;46.09;95057.56;4170964;28;20084;-52
2022/07/17 01:44:12;;;;;;;2.97;2.00;;;;;;;23.63;46.17;95062.22;4161126;28;20129;-53
2022/07/17 01:46:14;;;;;;;3.42;2.20;;;;;;;23.58;46.25;95065.59;4159110;28;20079;-54
2022/07/17 01:48:27;;;;;;;4.80;2.38;;;;;;;23.51;45.98;95056.84;4157698;28;20535;-54
2022/07/17 01:50:28;;;;;;;3.55;2.40;;;;;;;23.48;46.38;95050.13;4167823;28;20049;-52
2022/07/17 01:52:30;;;;;;;5.40;2.70;;;;;;;23.38;46.39;95063.25;4163839;28;20099;-54
2022/07/17 01:54:33;;;;;;;4.70;2.40;;;;;;;23.31;46.69;95059.84;4157929;28;20115;-53
2022/07/17 01:56:34;;;;;;;4.07;2.33;;;;;;;23.34;46.41;95069.28;4158505;28;20118;-52
2022/07/17 01:58:36;;;;;;;4.20;2.42;;;;;;;23.33;46.05;95068.47;4165422;28;20060;-52
2022/07/17 02:00:38;;;;;;;4.45;2.53;;;;;;;23.26;46.16;95063.22;4166227;28;20053;-54
2022/07/17 02:02:40;;;;;;;4.32;2.15;;;;;;;23.26;46.04;95071.25;4169217;28;20230;-51
2022/07/17 02:04:41;;;;;;;4.97;2.35;;;;;;;23.23;46.44;95069.03;4174084;28;20110;-54
2022/07/17 02:06:43;;;;;;;5.70;2.30;;;;;;;23.24;46.13;95070.66;4161475;28;20045;-52
2022/07/17 02:08:45;;;;;;;3.03;2.03;;;;;;;23.23;46.37;95066.38;4170676;28;20053;-51
2022/07/17 02:10:47;;;;;;;7.20;2.40;;;;;;;23.24;46.39;95065.31;4167119;28;20048;-54
2022/07/17 02:12:49;;;;;;;4.47;2.25;;;;;;;23.22;46.22;95070.06;4164796;28;20053;-53
2022/07/17 02:14:50;;;;;;;3.13;2.50;;;;;;;23.23;46.51;95063.69;4158282;28;20076;-55
2022/07/17 02:16:52;;;;;;;6.45;2.40;;;;;;;23.23;46.28;95068.19;4160287;28;20056;-51
2022/07/17 02:18:54;;;;;;;2.60;2.13;;;;;;;23.20;46.12;95061.47;4169182;28;20053;-53
2022/07/17 02:20:56;;;;;;;3.45;2.58;;;;;;;23.20;46.58;95071.34;4158697;28;20421;-55
2022/07/17 02:22:57;;;;;;;5.18;2.60;;;;;;;23.19;46.45;95073.22;4159606;28;20064;-55
2022/07/17 02:24:59;;;;;;;3.42;2.30;;;;;;;23.22;46.42;95067.41;4173286;28;20056;-53
2022/07/17 02:27:01;;;;;;;3.28;2.25;;;;;;;23.22;46.26;95063.91;4175598;28;20190;-52
2022/07/17 02:29:03;;;;;;;4.35;2.47;;;;;;;23.17;46.29;95059.25;4174830;28;20049;-52
2022/07/17 02:31:04;;;;;;;5.07;2.42;;;;;;;23.16;46.30;95062.16;4166494;28;20053;-53
2022/07/17 02:33:06;;;;;;;3.00;2.38;;;;;;;23.15;46.09;95068.56;4157235;28;20460;-51
2022/07/17 02:35:09;;;;;;;3.78;2.20;;;;;;;23.15;46.27;95068.56;4173197;28;20045;-55
2022/07/17 02:37:11;;;;;;;2.60;2.10;;;;;;;23.15;45.98;95060.53;4164695;28;20045;-54
2022/07/17 02:39:12;;;;;;;5.07;2.60;;;;;;;23.19;45.95;95065.19;4173660;28;20055;-55
2022/07/17 02:41:15;;;;;;;3.47;2.13;;;;;;;23.16;46.19;95070.97;4178126;28;20467;-56
2022/07/17 02:43:17;;;;;;;5.70;2.30;;;;;;;23.13;46.07;95078.66;4167455;28;20049;-55
2022/07/17 02:45:24;;;;;;;4.47;2.10;;;;;;;23.09;46.41;95080.97;4173670;28;20048;-55
2022/07/17 02:47:30;;;;;;;4.53;2.80;;;;;;;23.04;46.42;95078.16;4176930;28;20187;-56
2022/07/17 02:49:32;;;;;;;5.70;2.58;;;;;;;23.01;46.49;95075.94;4173773;28;20061;-57
2022/07/17 02:51:34;;;;;;;6.22;2.35;;;;;;;22.96;46.51;95084.59;4161619;28;20061;-56
2022/07/17 02:53:36;;;;;;;5.22;2.50;;;;;;;22.97;46.63;95085.41;4168389;28;20057;-55
2022/07/17 02:55:38;;;;;;;3.20;2.17;;;;;;;23.00;46.41;95080.47;4165806;28;20477;-56
2022/07/17 02:57:40;;;;;;;4.70;2.83;;;;;;;23.02;46.61;95088.25;4174906;28;20040;-56
2022/07/17 02:59:42;;;;;;;4.00;2.03;;;;;;;23.04;46.46;95084.31;4165264;28;20163;-56
2022/07/17 03:01:44;;;;;;;3.17;2.30;;;;;;;23.06;46.37;95086.78;4178252;28;20053;-57
2022/07/17 03:03:46;;;;;;;6.20;2.38;;;;;;;23.03;46.61;95085.34;4167073;28;20076;-56
2022/07/17 03:05:47;;;;;;;3.38;2.30;;;;;;;23.06;46.64;95081.44;4173654;28;20060;-54
2022/07/17 03:07:49;;;;;;;4.55;2.40;;;;;;;23.08;46.45;95087.31;4163474;28;20049;-55
2022/07/17 03:09:51;;;;;;;3.00;2.50;;;;;;;23.09;46.46;95092.47;4166211;28;20145;-57
2022/07/17 03:11:53;;;;;;;3.45;2.17;;;;;;;23.12;46.46;95093.03;4168060;28;20052;-57
2022/07/17 03:13:54;;;;;;;2.88;2.47;;;;;;;23.14;46.37;95090.97;4168736;28;20183;-59
2022/07/17 03:15:56;;;;;;;4.47;2.63;;;;;;;23.14;46.30;95097.13;4173492;28;20563;-55
2022/07/17 03:17:58;;;;;;;5.95;2.40;;;;;;;23.15;46.73;95105.97;4162389;28;20053;-56
2022/07/17 03:20:00;;;;;;;4.30;2.53;;;;;;;23.20;46.69;95111.44;4164231;28;20460;-55
2022/07/17 03:22:02;;;;;;;5.10;3.58;;;;;;;23.12;47.15;95111.75;4171993;28;20111;-56
2022/07/17 03:24:04;;;;;;;3.47;2.75;;;;;;;23.04;47.19;95107.56;4159966;28;20057;-55
2022/07/17 03:26:06;;;;;;;5.15;3.03;;;;;;;23.05;46.77;95109.16;4161730;28;20119;-55
2022/07/17 03:28:08;;;;;;;3.40;2.50;;;;;;;23.10;46.68;95110.13;4160805;28;20073;-54
2022/07/17 03:30:10;;;;;;;3.85;3.00;;;;;;;23.07;47.26;95104.41;4175888;28;20075;-53
2022/07/17 03:32:11;;;;;;;6.35;2.88;;;;;;;23.05;47.37;95114.50;4173487;28;20049;-53
2022/07/17 03:34:14;;;;;;;4.55;2.80;;;;;;;23.11;47.02;95118.97;4166256;28;20147;-53
2022/07/17 03:36:15;;;;;;;3.47;2.25;;;;;;;23.18;46.25;95118.88;4176697;28;20485;-52
2022/07/17 03:38:17;;;;;;;7.10;2.78;;;;;;;23.26;46.60;95121.22;4172479;28;20080;-53
2022/07/17 03:40:19;;;;;;;4.68;2.47;;;;;;;23.22;46.92;95130.72;4168908;28;20041;-52
2022/07/17 03:42:21;;;;;;;7.75;3.00;;;;;;;23.12;47.40;95133.13;4162935;28;20059;-52
2022/07/17 03:44:23;;;;;;;3.67;2.22;;;;;;;23.01;47.50;95129.38;4174268;28;20521;-53
2022/07/17 03:46:25;;;;;;;3.08;2.38;;;;;;;23.03;47.37;95132.63;4160940;28;20037;-53
2022/07/17 03:48:27;;;;;;;3.78;2.60;;;;;;;23.07;47.13;95123.13;4168213;28;20049;-51
2022/07/17 03:50:28;;;;;;;6.10;2.60;;;;;;;23.13;46.84;95126.75;4176317;28;20114;-56
2022/07/17 03:52:30;;;;;;;4.47;2.80;;;;;;;23.17;47.15;95133.28;4163189;28;20050;-53
2022/07/17 03:54:32;;;;;;;4.45;2.80;;;;;;;23.18;47.31;95134.91;4174037;28;20123;-53
2022/07/17 03:56:33;;;;;;;4.60;2.75;;;;;;;23.23;46.51;95137.69;4161300;28;20528;-51
2022/07/17 03:58:35;;;;;;;2.50;2.13;;;;;;;23.28;46.38;95132.50;4159474;28;20057;-54
2022/07/17 04:00:37;;;;;;;4.15;2.55;;;;;;;23.35;46.21;95145.75;4170914;28;20059;-52
2022/07/17 04:02:39;;;;;;;6.38;2.55;;;;;;;23.39;46.19;95149.63;4162086;28;20062;-54
2022/07/17 04:04:41;;;;;;;5.43;2.67;;;;;;;23.39;46.17;95153.09;4163825;28;20053;-55
2022/07/17 04:06:42;;;;;;;5.88;2.72;;;;;;;23.41;45.80;95144.84;4171682;28;20136;-52
2022/07/17 04:08:44;;;;;;;4.38;2.75;;;;;;;23.39;45.95;95152.28;4169270;28;20081;-51
2022/07/17 04:10:46;;;;;;;5.63;2.70;;;;;;;23.38;45.88;95151.47;4166227;28;20050;-54
2022/07/17 04:12:48;;;;;;;4.72;2.50;;;;;;;23.43;45.83;95148.13;4174413;28;20115;-54
2022/07/17 04:14:50;;;;;;;8.00;2.78;;;;;;;23.47;46.00;95143.94;4176483;28;20481;-55
2022/07/17 04:16:51;;;;;;;3.78;2.65;;;;;;;23.53;45.38;95156.38;4174835;28;20055;-54
2022/07/17 04:18:53;;;;;;;5.40;2.70;;;;;;;23.58;45.13;95158.41;4168140;28;20115;-54
2022/07/17 04:20:57;;;;;;;5.57;3.00;;;;;;;23.63;44.91;95163.84;4170717;28;20072;-53
2022/07/17 04:22:59;;;;;;;2.95;2.33;;;;;;;23.68;44.44;95167.47;4163662;28;20061;-55
2022/07/17 04:25:01;;;;;;;6.85;3.10;;;;;;;23.75;44.54;95169.22;4161421;28;20446;-54
2022/07/17 04:27:03;;;;;;;3.28;2.40;;;;;;;23.82;44.23;95168.09;4177103;28;20053;-53
2022/07/17 04:29:05;;;;;;;8.52;3.03;;;;;;;23.84;44.17;95160.66;4170282;28;20061;-52
2022/07/17 04:31:07;;;;;;;5.55;2.85;;;;;;;23.90;43.77;95173.13;4168837;28;20057;-54
2022/07/17 04:33:09;;;;;;;4.85;2.50;;;;;;;23.94;43.85;95165.47;4162687;28;20058;-52
2022/07/17 04:35:11;;;;;;;8.52;2.47;;;;;;;23.97;43.47;95165.00;4168167;28;20045;-53
2022/07/17 04:37:12;;;;;;;4.78;2.55;;;;;;;24.01;43.12;95168.84;4166068;28;20362;-52
2022/07/17 04:39:14;;;;;;;7.43;2.33;;;;;;;24.00;43.38;95175.22;4160809;28;20050;-52
2022/07/17 04:41:16;;;;;;;5.65;2.47;;;;;;;24.04;43.39;95181.75;4175141;28;20049;-52
2022/07/17 04:43:17;;;;;;;5.03;2.45;;;;;;;24.11;43.33;95181.63;4175786;28;20416;-52
2022/07/17 04:45:19;;;;;;;4.25;2.75;;;;;;;24.19;43.35;95180.47;4176439;28;20493;-50
2022/07/17 04:47:21;;;;;;;5.13;3.10;;;;;;;24.21;43.41;95178.38;4175483;28;20140;-53
2022/07/17 04:49:23;;;;;;;7.88;2.70;;;;;;;24.25;43.26;95182.22;4162613;28;22304;-54
2022/07/17 04:51:24;;;;;;;8.73;2.83;;;;;;;24.28;43.38;95179.06;4176406;28;20060;-53
2022/07/17 04:53:26;;;;;;;5.82;2.90;;;;;;;24.29;43.38;95184.22;4167728;28;20077;-55
2022/07/17 04:55:28;;;;;;;5.20;2.55;;;;;;;24.35;43.37;95182.47;4160132;28;20056;-53
2022/07/17 04:57:30;;;;;;;3.63;2.90;;;;;;;24.41;43.51;95184.19;4159519;28;20063;-54
2022/07/17 04:59:32;;;;;;;3.58;2.67;;;;;;;24.49;43.23;95197.25;4173312;28;20053;-49
2022/07/17 05:01:34;;;;;;;5.25;2.90;;;;;;;24.33;43.53;95196.09;4169695;28;20079;-52
2022/07/17 05:03:37;;;;;;;4.80;2.60;;;;;;;24.09;44.32;95199.78;4166579;28;20057;-52
2022/07/17 05:05:40;;;;;;;6.47;3.10;;;;;;;24.02;44.66;95201.75;4160060;28;20058;-54
2022/07/17 05:07:42;;;;;;;5.18;3.28;;;;;;;23.99;44.57;95203.03;4159546;28;20131;-55
2022/07/17 05:09:43;;;;;;;5.03;2.90;;;;;;;24.08;44.74;95209.69;4161476;28;20088;-56
2022/07/17 05:11:45;;;;;;;5.80;2.70;;;;;;;24.23;44.46;95208.41;4171433;28;20061;-54
2022/07/17 05:13:47;;;;;;;9.07;2.88;;;;;;;24.34;41.91;95207.59;4166830;28;20467;-55
2022/07/17 05:15:49;;;;;;;3.78;2.65;;;;;;;24.38;41.68;95202.59;4176140;28;20049;-52
2022/07/17 05:17:51;;;;;;;5.30;3.03;;;;;;;24.45;42.15;95198.75;4161168;28;20057;-53
2022/07/17 05:19:52;;;;;;;3.45;2.33;;;;;;;24.50;41.29;95206.09;4161370;28;20171;-53
2022/07/17 05:21:54;;;;;;;3.72;2.58;;;;;;;24.53;40.62;95208.34;4172141;28;20081;-53
2022/07/17 05:23:56;;;;;;;5.05;2.40;;;;;;;24.54;39.76;95204.59;4159130;28;20523;-50
2022/07/17 05:25:58;;;;;;;4.97;2.38;;;;;;;24.56;39.54;95202.50;4159942;28;20564;-52
2022/07/17 05:28:01;;;;;;;5.90;2.60;;;;;;;24.69;39.28;95201.44;4158382;28;20053;-53
2022/07/17 05:30:03;;;;;;;;;;;;;;;24.79;38.65;95198.97;4173927;28;20358;-52
2022/07/17 05:32:05;;;;;;;4.85;2.92;;;;;;;24.85;39.04;95205.28;4159720;28;19925;-53
2022/07/17 05:34:07;;;;;;;6.10;2.80;;;;;;;24.90;38.98;95208.84;4163743;28;20091;-54
2022/07/17 05:36:09;;;;;;;7.18;3.72;;;;;;;24.88;38.69;95207.47;4175084;28;20126;-52
2022/07/17 05:38:10;;;;;;;4.47;2.60;;;;;;;24.81;37.31;95204.91;4171969;28;20420;-53
2022/07/17 05:40:13;;;;;;;5.43;2.60;;;;;;;24.82;37.18;95208.41;4158641;28;20057;-52
2022/07/17 05:42:14;;;;;;;6.53;2.70;;;;;;;24.71;37.92;95207.38;4159469;28;20119;-54
2022/07/17 05:44:16;;;;;;;3.05;2.28;;;;;;;24.66;37.13;95210.75;4159381;28;20421;-56
2022/07/17 05:46:18;;;;;;;4.75;2.83;;;;;;;24.71;37.69;95202.00;4158821;28;20115;-55
2022/07/17 05:48:20;;;;;;;4.90;2.67;;;;;;;24.83;38.17;95210.06;4161873;28;20053;-52
2022/07/17 05:50:22;;;;;;;4.07;2.78;;;;;;;24.98;37.98;95205.00;4170425;28;20125;-54
2022/07/17 05:52:24;;;;;;;4.75;2.30;;;;;;;25.04;37.35;95212.09;4174982;28;20087;-54
2022/07/17 05:54:26;;;;;;;5.70;2.33;;;;;;;24.76;36.92;95212.03;4172487;28;20056;-55
2022/07/17 05:56:27;;;;;;;4.47;2.35;;;;;;;24.57;37.54;95220.22;4158592;28;20045;-54
2022/07/17 05:58:29;;;;;;;3.28;2.40;;;;;;;24.32;38.04;95210.50;4168783;28;21835;-54
2022/07/17 06:00:31;;;;;;;5.80;2.67;;;;;;;24.08;38.57;95212.34;4169980;28;20041;-50
2022/07/17 06:02:33;;;;;;;4.00;2.42;;;;;;;24.02;38.70;95207.91;4157801;28;20060;-52
2022/07/17 06:04:34;;;;;;;5.10;2.83;;;;;;;23.79;39.10;95213.22;4158286;28;20540;-52
2022/07/17 06:06:36;;;;;;;4.55;2.40;;;;;;;23.78;39.01;95214.28;4162233;28;20052;-53
2022/07/17 06:08:38;;;;;;;4.57;2.45;;;;;;;23.88;38.72;95214.53;4175315;28;20425;-53
2022/07/17 06:10:40;;;;;;;4.65;2.28;;;;;;;23.94;39.21;95216.31;4165820;28;20064;-50
2022/07/17 06:12:41;;;;;;;3.30;2.45;;;;;;;24.07;39.32;95217.94;4170826;28;20064;-53
2022/07/17 06:14:44;;;;;;;3.47;2.60;;;;;;;24.26;38.61;95213.28;4175772;28;20063;-55
2022/07/17 06:16:46;;;;;;;3.90;2.60;;;;;;;24.19;38.46;95217.97;4162954;28;20059;-52
2022/07/17 06:18:47;;;;;;;4.07;2.70;;;;;;;23.95;39.36;95217.91;4160455;28;20074;-55
2022/07/17 06:20:49;;;;;;;4.05;2.58;;;;;;;24.00;39.26;95220.72;4170927;28;20426;-56
2022/07/17 06:22:51;;;;;;;7.03;2.58;;;;;;;24.25;39.35;95225.06;4165829;28;20478;-52
2022/07/17 06:24:53;;;;;;;6.35;2.80;;;;;;;24.50;38.91;95220.34;4161512;28;20053;-53
2022/07/17 06:26:54;;;;;;;6.68;2.53;;;;;;;24.49;38.75;95220.56;4175363;28;20129;-54
2022/07/17 06:28:56;;;;;;;4.95;2.70;;;;;;;24.17;39.08;95228.06;4162398;28;20121;-51
2022/07/17 06:30:58;;;;;;;4.05;2.72;;;;;;;24.32;39.17;95233.78;4161582;28;20076;-53
2022/07/17 06:33:00;;;;;;;5.63;3.17;;;;;;;24.58;39.10;95229.88;4160717;28;20244;-54
2022/07/17 06:35:01;;;;;;;4.30;2.47;;;;;;;24.82;38.60;95229.84;4174429;28;20048;-50
2022/07/17 06:37:03;;;;;;;3.67;2.47;;;;;;;25.05;38.20;95221.75;4169325;28;20046;-55
2022/07/17 06:39:05;;;;;;;6.38;2.92;;;;;;;24.74;38.26;95225.69;4162173;28;20052;-55
2022/07/17 06:41:07;;;;;;;5.75;2.85;;;;;;;24.46;38.75;95226.38;4161437;28;20065;-57
2022/07/17 06:43:08;;;;;;;5.13;2.33;;;;;;;24.35;38.70;95219.97;4168651;28;20053;-54
2022/07/17 06:45:10;;;;;;;6.07;2.88;;;;;;;24.45;39.25;95214.81;4168245;28;20049;-55
2022/07/17 06:47:12;;;;;;;5.70;2.78;;;;;;;24.53;39.12;95227.09;4161958;28;20042;-55
2022/07/17 06:49:14;;;;;;;5.00;2.80;;;;;;;24.46;39.30;95229.03;4159768;28;20469;-54
2022/07/17 06:51:15;;;;;;;4.03;2.40;;;;;;;24.21;39.13;95222.03;4161678;28;20513;-54
2022/07/17 06:53:17;;;;;;;5.05;3.20;;;;;;;24.33;39.38;95227.41;4169226;28;20098;-56
2022/07/17 06:55:19;;;;;;;4.43;2.80;;;;;;;24.61;38.93;95226.72;4167616;28;20049;-57
2022/07/17 06:57:21;;;;;;;7.00;2.92;;;;;;;24.88;38.61;95224.34;4174292;28;20045;-54
2022/07/17 06:59:22;;;;;;;4.80;2.60;;;;;;;25.01;38.02;95235.88;4176192;28;20048;-56
2022/07/17 07:01:24;;;;;;;4.53;2.72;;;;;;;24.67;38.38;95235.69;4165898;28;20041;-54
2022/07/17 07:03:26;;;;;;;4.95;2.60;;;;;;;24.70;38.89;95232.56;4176273;28;20052;-56
2022/07/17 07:05:28;;;;;;;7.90;3.20;;;;;;;24.96;38.72;95227.75;4178460;28;20551;-55
2022/07/17 07:07:30;;;;;;;4.28;2.78;;;;;;;24.96;38.05;95231.22;4175037;28;20448;-55
2022/07/17 07:09:32;;;;;;;6.85;2.70;;;;;;;24.58;37.93;95235.22;4162442;28;20494;-56
2022/07/17 07:11:34;;;;;;;3.55;2.55;;;;;;;24.63;37.95;95242.56;4178054;28;20366;-54
2022/07/17 07:13:36;;;;;;;7.90;2.53;;;;;;;24.73;38.50;95234.75;4171679;28;20115;-57
2022/07/17 07:15:38;;;;;;;4.50;3.00;;;;;;;24.88;38.14;95235.06;4161623;28;20056;-56
2022/07/17 07:17:40;;;;;;;5.22;2.80;;;;;;;24.94;37.84;95236.00;4171570;28;20049;-57
2022/07/17 07:19:42;;;;;;;4.20;2.87;;;;;;;24.90;37.77;95237.53;4177007;28;20489;-55
2022/07/17 07:21:44;;;;;;;5.85;2.42;;;;;;;24.88;37.93;95231.59;4176959;28;20278;-55
2022/07/17 07:23:45;;;;;;;3.70;2.58;;;;;;;25.00;37.74;95232.38;4172431;28;20100;-56
2022/07/17 07:25:47;;;;;;;6.43;2.78;;;;;;;25.12;37.52;95233.19;4160970;28;20055;-54
2022/07/17 07:27:49;;;;;;;5.90;2.78;;;;;;;25.22;37.55;95235.28;4171697;28;20424;-57
2022/07/17 07:29:50;;;;;;;4.13;2.78;;;;;;;25.27;37.77;95238.03;4164688;28;20560;-54
2022/07/17 07:31:52;;;;;;;4.00;2.63;;;;;;;25.45;37.54;95234.38;4161276;28;20053;-55
2022/07/17 07:33:54;;;;;;;4.65;2.85;;;;;;;25.55;37.32;95239.13;4164370;28;20226;-58
2022/07/17 07:35:55;;;;;;;4.40;2.63;;;;;;;25.65;37.21;95239.31;4178246;28;20119;-57
2022/07/17 07:37:57;;;;;;;5.45;2.65;;;;;;;25.66;36.66;95240.13;4163968;28;20049;-56
2022/07/17 07:39:59;;;;;;;6.70;2.65;;;;;;;25.57;36.70;95247.75;4177403;28;20424;-56
2022/07/17 07:42:01;;;;;;;4.20;2.38;;;;;;;25.55;36.86;95236.44;4177702;28;20476;-54
2022/07/17 07:44:03;;;;;;;6.50;3.03;;;;;;;25.40;36.78;95241.50;4166490;28;20049;-57
2022/07/17 07:46:04;;;;;;;4.97;2.72;;;;;;;25.54;36.84;95246.34;4174530;28;20156;-56
2022/07/17 07:48:06;;;;;;;4.97;2.47;;;;;;;25.31;37.04;95246.44;4172968;28;20068;-57
2022/07/17 07:50:09;;;;;;;5.15;2.90;;;;;;;25.30;37.02;95242.94;4161447;28;20432;-54
2022/07/17 07:52:11;;;;;;;4.30;2.60;;;;;;;25.30;37.56;95248.31;4168718;28;20049;-58
2022/07/17 07:54:13;;;;;;;7.78;3.10;;;;;;;25.47;37.08;95234.16;4165833;28;20675;-53
2022/07/17 07:56:15;;;;;;;4.95;2.63;;;;;;;25.83;36.98;95240.16;4160741;28;20061;-56
2022/07/17 07:58:18;;;;;;;3.95;2.35;;;;;;;25.89;35.39;95241.91;4159512;28;20081;-57
2022/07/17 08:00:19;;;;;;;3.53;2.60;;;;;;;25.96;35.28;95237.19;4166135;28;20493;-56
2022/07/17 08:02:21;;;;;;;3.08;2.03;;;;;;;26.03;35.51;95240.56;4169200;28;20238;-56
2022/07/17 08:04:23;;;;;;;4.50;2.90;;;;;;;26.20;34.93;95245.09;4170562;28;20406;-56
2022/07/17 08:06:25;;;;;;;5.10;2.63;;;;;;;26.20;35.08;95237.03;4164058;28;20061;-54
2022/07/17 08:08:26;;;;;;;4.72;2.83;;;;;;;26.11;35.52;95237.47;4161054;28;20045;-56
2022/07/17 08:10:28;;;;;;;4.13;2.70;;;;;;;25.84;35.71;95237.25;4177360;28;20056;-55
2022/07/17 08:12:30;;;;;;;3.40;2.55;;;;;;;25.96;35.73;95239.88;4169421;28;20072;-55
2022/07/17 08:14:48;;;;;;;4.53;2.40;;;;;;;26.26;35.73;95239.56;4173232;28;20577;-60
2022/07/17 08:16:50;;;;;;;3.80;2.63;;;;;;;26.52;35.43;95245.34;4175101;28;20387;-56
2022/07/17 08:18:52;;;;;;;4.25;2.60;;;;;;;26.69;34.80;95238.09;4162576;28;20056;-56
2022/07/17 08:20:53;;;;;;;6.80;2.70;;;;;;;26.44;35.54;95243.91;4171267;28;20115;-56
2022/07/17 08:22:55;;;;;;;3.55;2.35;;;;;;;26.42;35.29;95240.63;4169079;28;20053;-57
2022/07/17 08:25:07;;;;;;;3.85;2.53;;;;;;;26.56;35.10;95243.81;4176552;28;20505;-59
2022/07/17 08:27:08;;;;;;;3.90;2.50;;;;;;;26.50;35.18;95240.22;4174964;28;20052;-60
2022/07/17 08:29:10;;;;;;;6.75;2.50;;;;;;;26.10;34.80;95246.56;4164638;28;20075;-55
2022/07/17 08:31:12;;;;;;;5.15;2.53;;;;;;;26.10;34.93;95249.25;4166263;28;20476;-58
2022/07/17 08:33:15;;;;;;;4.28;2.60;;;;;;;26.33;34.92;95245.59;4168295;28;20095;-57
2022/07/17 08:35:16;;;;;;;3.55;2.78;;;;;;;26.63;34.13;95243.66;4176532;28;20132;-55
2022/07/17 08:37:18;;;;;;;5.43;2.33;;;;;;;26.93;33.90;95248.63;4163908;28;20127;-56
2022/07/17 08:39:20;;;;;;;4.75;2.90;;;;;;;27.07;33.73;95249.91;4160612;28;20087;-55
2022/07/17 08:41:22;;;;;;;5.30;2.33;;;;;;;26.79;33.39;95252.75;4167067;28;20491;-57
2022/07/17 08:43:24;;;;;;;4.63;2.25;;;;;;;26.45;34.71;95255.44;4172075;28;20056;-55
2022/07/17 08:45:26;;;;;;;6.28;2.60;;;;;;;26.41;34.29;95249.75;4167222;28;20115;-58
2022/07/17 08:47:27;;;;;;;6.47;2.90;;;;;;;26.45;34.24;95242.00;4168329;28;20163;-53
2022/07/17 08:49:30;;;;;;;3.83;2.25;;;;;;;26.40;34.74;95250.81;4169609;28;20041;-57
2022/07/17 08:51:32;;;;;;;4.17;2.77;;;;;;;26.55;34.46;95247.53;4166029;28;20071;-55
2022/07/17 08:53:35;;;;;;;5.90;3.33;;;;;;;26.60;34.73;95244.16;4170947;28;20370;-55
2022/07/17 08:55:37;;;;;;;9.30;2.63;;;;;;;26.55;34.40;95237.59;4160261;28;20454;-55
2022/07/17 08:57:40;;;;;;;4.70;2.33;;;;;;;26.77;33.67;95239.56;4164159;28;20053;-56
2022/07/17 08:59:47;;;;;;;5.00;2.40;;;;;;;27.14;33.29;95228.22;4176073;28;20045;-57
2022/07/17 09:01:49;;;;;;;4.70;2.63;;;;;;;27.41;33.31;95232.88;4172274;28;20115;-58
2022/07/17 09:04:05;;;;;;;3.83;2.50;;;;;;;27.65;33.12;95226.13;4168699;28;20140;-56
2022/07/17 09:06:20;;;;;;;5.20;2.67;;;;;;;27.74;33.19;95223.78;4173276;28;20053;-60
2022/07/17 09:08:24;;;;;;;5.25;2.13;;;;;;;27.76;32.25;95219.78;4169868;28;20119;-53
2022/07/17 09:10:31;;;;;;;3.78;2.95;;;;;;;27.97;32.71;95222.69;4160237;28;20057;-60
2022/07/17 09:12:33;;;;;;;3.67;2.53;;;;;;;28.15;31.99;95218.81;4165066;28;20329;-56
2022/07/17 09:14:40;;;;;;;3.92;2.30;;;;;;;28.31;31.71;95223.25;4171235;28;20184;-57
2022/07/17 09:16:55;;;;;;;8.60;2.20;;;;;;;27.64;32.65;95224.53;4173366;28;20132;-58
2022/07/17 09:18:59;;;;;;;4.57;2.75;;;;;;;27.46;33.13;95222.97;4170695;28;20052;-57
2022/07/17 09:21:01;;;;;;;3.92;2.70;;;;;;;27.07;33.78;95224.91;4164832;28;20061;-57
2022/07/17 09:23:04;;;;;;;5.00;2.75;;;;;;;27.00;33.91;95229.66;4169479;28;20056;-54
2022/07/17 09:25:07;;;;;;;4.80;2.42;;;;;;;26.52;34.82;95231.91;4158990;28;20053;-57
2022/07/17 09:27:09;;;;;;;4.07;2.90;;;;;;;26.73;34.70;95235.75;4170988;28;20096;-53
2022/07/17 09:29:14;;;;;;;6.03;2.63;;;;;;;27.11;34.63;95236.78;4170710;28;20045;-55
2022/07/17 09:31:31;;;;;;;4.80;2.53;;;;;;;27.53;34.04;95223.59;4169804;28;20274;-56
2022/07/17 09:33:33;;;;;;;3.22;2.55;;;;;;;27.92;32.78;95219.94;4169521;28;20525;-60
2022/07/17 09:35:53;;;;;;;5.63;2.70;;;;;;;28.22;32.28;95215.91;4171206;28;20215;-55